Morris, IL (60450)

01:32 AM CDT die 21o April, anno 2015 (GMT -0500)
Morris Tac-Wx-Ops EW3943 APRS | | Change Station
CLOSE
Current Station
Personal Weather Stations
Location: Morris, IL
Elevation: 548 ft
Nearby Weather Stations

Elev 548 ft 41.38 °N, 88.43 °W | Updated 4 seconds ago

Partialiter Nubila
Partialiter Nubila
43.0 °F
Feels Like 43 °F
N
1.3
Ventus Variabilis Ventus from Aquilo
Gusts 2.5 mph

Hodie
High -- | Low -- °F
--% Chance of Precip.
Yesterday
High -- | Low -- °F
Precip. -- in
6:05 AM 7:40 PM
Waxing Crescent, 8% visible
Pressio 29.64 in
Visibilitas 10.0 milia passuum
Clouds Plerumque Nubila 4300 ft
Frigus Venti 43 °F
Frigus in quo Ros apparet 36 °F
Umor 75%
Rainfall 0.00 in
Snow Depth Not available.
UV 0.0 out of 12
Pollen 8.00 out of 12
Air Quality Not available.
Flu Activity Regional
METAR KC09 210615Z AUTO 24007KT 10SM BKN043 05/01 A2964 RMK AO2 T00470012

More Conditions Fewer Conditions

Pressio 29.64 in
Visibilitas 10.0 milia passuum
Clouds Plerumque Nubila 4300 ft
Frigus Venti 43 °F
Frigus in quo Ros apparet 36 °F
Umor 75%
Rainfall 0.00 in
Snow Depth Not available.
UV 0.0 out of 12
Pollen 8.00 out of 12
Air Quality Not available.
Flu Activity Regional
METAR KC09 210615Z AUTO 24007KT 10SM BKN043 05/01 A2964 RMK AO2 T00470012

More Conditions Fewer Conditions

10-Day Weather Forecast

Almanac

Astronomy

Apr. 21, 2015 Rise Set
Actual Time
Civil Twilight
Nautical Twilight
Astronomical Twilight
Moon
Length Of Visible Light
Length of Day
Tomorrow will be .
, % of the Moon is Illuminated

Today's Extremes

State Highs State Lows

Community

WunderPhotos

Upload Photos

1,815,320 photos uploaded!

WunderBlogs® & News

Nearby

Air Quality

  Air Quality AQ Index Pollutant
Not available.

Snow Depth

Station Depth Elevation

Earthquake Activity

City Distance Mag. Time & Date
Minimum magnitude displayed is 2.5.

Coastal Water Temperatures

Locus Calor

Stations

Nearby Weather Stations

Station Location Temp Frigus Venti Frigus in quo Ros apparet Umor Ventus Precip. Elev Renovata Type